sensor_id;sensor_type;location;lat;lon;timestamp;temperature;humidity
1992;DHT22;997;48.448;8.924;2023-04-28T07:40:16;13.80;99.90
1992;DHT22;997;48.448;8.924;2023-04-28T07:42:42;13.80;99.90
1992;DHT22;997;48.448;8.924;2023-04-28T07:45:08;13.90;99.90
1992;DHT22;997;48.448;8.924;2023-04-28T07:47:34;13.90;99.90
1992;DHT22;997;48.448;8.924;2023-04-28T07:50:03;13.90;99.90
1992;DHT22;997;48.448;8.924;2023-04-28T09:44:52;14.90;99.90
1992;DHT22;997;48.448;8.924;2023-04-28T09:47:21;15.00;99.90
1992;DHT22;997;48.448;8.924;2023-04-28T09:49:55;15.10;99.90
1992;DHT22;997;48.448;8.924;2023-04-28T09:52:25;15.30;99.90
1992;DHT22;997;48.448;8.924;2023-04-28T09:54:54;15.50;99.90
1992;DHT22;997;48.448;8.924;2023-04-28T09:57:20;15.70;99.90
1992;DHT22;997;48.448;8.924;2023-04-28T09:59:48;15.70;99.90
1992;DHT22;997;48.448;8.924;2023-04-28T10:02:18;15.80;99.90
1992;DHT22;997;48.448;8.924;2023-04-28T10:04:45;15.90;99.90
1992;DHT22;997;48.448;8.924;2023-04-28T10:07:12;15.90;99.90
1992;DHT22;997;48.448;8.924;2023-04-28T10:09:39;15.80;99.90
1992;DHT22;997;48.448;8.924;2023-04-28T10:12:09;15.80;99.90
1992;DHT22;997;48.448;8.924;2023-04-28T10:14:36;15.70;99.90
1992;DHT22;997;48.448;8.924;2023-04-28T10:17:03;15.80;99.90
1992;DHT22;997;48.448;8.924;2023-04-28T10:19:31;15.80;99.90
1992;DHT22;997;48.448;8.924;2023-04-28T10:25:31;15.90;99.90
1992;DHT22;997;48.448;8.924;2023-04-28T10:27:58;16.10;99.90
1992;DHT22;997;48.448;8.924;2023-04-28T10:30:25;16.30;99.90
1992;DHT22;997;48.448;8.924;2023-04-28T10:41:16;16.70;99.90
1992;DHT22;997;48.448;8.924;2023-04-28T10:58:44;17.10;99.90
1992;DHT22;997;48.448;8.924;2023-04-28T11:01:26;17.30;99.90
1992;DHT22;997;48.448;8.924;2023-04-28T11:04:19;17.50;99.90
1992;DHT22;997;48.448;8.924;2023-04-28T11:06:45;17.70;99.90
1992;DHT22;997;48.448;8.924;2023-04-28T11:17:05;17.90;99.90
1992;DHT22;997;48.448;8.924;2023-04-28T11:19:37;18.00;99.90
1992;DHT22;997;48.448;8.924;2023-04-28T11:24:38;17.80;99.90
1992;DHT22;997;48.448;8.924;2023-04-28T11:27:04;17.90;99.90
1992;DHT22;997;48.448;8.924;2023-04-28T11:29:38;18.00;99.90
1992;DHT22;997;48.448;8.924;2023-04-28T11:32:08;18.10;99.90
1992;DHT22;997;48.448;8.924;2023-04-28T11:34:35;18.30;99.90
1992;DHT22;997;48.448;8.924;2023-04-28T11:37:02;18.10;99.90
1992;DHT22;997;48.448;8.924;2023-04-28T11:39:30;18.20;99.90
1992;DHT22;997;48.448;8.924;2023-04-28T11:41:57;18.20;99.90
1992;DHT22;997;48.448;8.924;2023-04-28T11:44:26;18.30;99.90
1992;DHT22;997;48.448;8.924;2023-04-28T11:46:54;18.30;99.90
1992;DHT22;997;48.448;8.924;2023-04-28T11:49:29;18.30;99.90
1992;DHT22;997;48.448;8.924;2023-04-28T11:51:56;18.20;99.90
1992;DHT22;997;48.448;8.924;2023-04-28T11:54:26;18.20;99.90
1992;DHT22;997;48.448;8.924;2023-04-28T11:56:54;18.20;99.90
1992;DHT22;997;48.448;8.924;2023-04-28T11:59:35;18.20;99.90
1992;DHT22;997;48.448;8.924;2023-04-28T12:02:10;18.30;99.90
1992;DHT22;997;48.448;8.924;2023-04-28T12:04:37;18.50;99.90
1992;DHT22;997;48.448;8.924;2023-04-28T12:07:06;18.50;99.90
1992;DHT22;997;48.448;8.924;2023-04-28T12:09:35;18.40;99.90
1992;DHT22;997;48.448;8.924;2023-04-28T12:12:05;18.50;99.90
1992;DHT22;997;48.448;8.924;2023-04-28T12:14:58;18.60;99.90
1992;DHT22;997;48.448;8.924;2023-04-28T12:17:36;18.70;99.90
1992;DHT22;997;48.448;8.924;2023-04-28T12:20:05;18.70;99.90
1992;DHT22;997;48.448;8.924;2023-04-28T12:22:50;18.50;99.90
1992;DHT22;997;48.448;8.924;2023-04-28T12:25:17;18.50;99.90
1992;DHT22;997;48.448;8.924;2023-04-28T12:28:03;18.60;99.90
1992;DHT22;997;48.448;8.924;2023-04-28T12:30:31;18.50;99.90
1992;DHT22;997;48.448;8.924;2023-04-28T12:32:57;18.50;99.90
1992;DHT22;997;48.448;8.924;2023-04-28T12:35:24;18.50;99.90
1992;DHT22;997;48.448;8.924;2023-04-28T12:37:51;18.60;99.90
1992;DHT22;997;48.448;8.924;2023-04-28T12:40:18;18.60;99.90
1992;DHT22;997;48.448;8.924;2023-04-28T12:42:43;18.70;99.90
1992;DHT22;997;48.448;8.924;2023-04-28T12:45:09;18.80;99.90
1992;DHT22;997;48.448;8.924;2023-04-28T12:47:36;18.90;99.90
1992;DHT22;997;48.448;8.924;2023-04-28T12:50:02;18.90;99.90
1992;DHT22;997;48.448;8.924;2023-04-28T12:52:28;18.90;99.90
1992;DHT22;997;48.448;8.924;2023-04-28T12:54:58;19.10;99.90
1992;DHT22;997;48.448;8.924;2023-04-28T12:57:25;18.90;99.90
1992;DHT22;997;48.448;8.924;2023-04-28T12:59:51;18.70;99.90
1992;DHT22;997;48.448;8.924;2023-04-28T13:02:17;18.70;99.90
1992;DHT22;997;48.448;8.924;2023-04-28T13:04:43;18.80;99.90
1992;DHT22;997;48.448;8.924;2023-04-28T13:07:13;18.70;99.90
1992;DHT22;997;48.448;8.924;2023-04-28T13:09:39;18.70;99.90
1992;DHT22;997;48.448;8.924;2023-04-28T13:12:06;18.60;99.90
1992;DHT22;997;48.448;8.924;2023-04-28T13:14:33;18.70;99.90
1992;DHT22;997;48.448;8.924;2023-04-28T13:16:58;18.70;99.90
1992;DHT22;997;48.448;8.924;2023-04-28T13:19:24;18.50;99.90
1992;DHT22;997;48.448;8.924;2023-04-28T13:21:52;18.40;99.90
1992;DHT22;997;48.448;8.924;2023-04-28T13:24:18;18.30;99.90
1992;DHT22;997;48.448;8.924;2023-04-28T13:26:44;18.30;99.90
1992;DHT22;997;48.448;8.924;2023-04-28T13:29:10;18.30;99.90
1992;DHT22;997;48.448;8.924;2023-04-28T13:31:36;18.30;99.90
1992;DHT22;997;48.448;8.924;2023-04-28T13:34:02;18.40;99.90
1992;DHT22;997;48.448;8.924;2023-04-28T13:36:29;18.40;99.90
1992;DHT22;997;48.448;8.924;2023-04-28T13:38:55;18.30;99.90
1992;DHT22;997;48.448;8.924;2023-04-28T13:41:21;18.10;99.90
1992;DHT22;997;48.448;8.924;2023-04-28T13:43:47;18.20;99.90
1992;DHT22;997;48.448;8.924;2023-04-28T13:46:13;18.30;99.90
1992;DHT22;997;48.448;8.924;2023-04-28T13:48:39;18.30;99.90
1992;DHT22;997;48.448;8.924;2023-04-28T13:51:06;18.30;99.90
1992;DHT22;997;48.448;8.924;2023-04-28T13:53:33;18.10;99.90
1992;DHT22;997;48.448;8.924;2023-04-28T13:56:00;18.10;99.90
1992;DHT22;997;48.448;8.924;2023-04-28T13:58:27;18.10;99.90
1992;DHT22;997;48.448;8.924;2023-04-28T14:01:06;18.00;99.90
1992;DHT22;997;48.448;8.924;2023-04-28T14:03:51;17.80;99.90
1992;DHT22;997;48.448;8.924;2023-04-28T14:06:16;17.70;99.90
1992;DHT22;997;48.448;8.924;2023-04-28T14:08:42;17.70;99.90
1992;DHT22;997;48.448;8.924;2023-04-28T14:11:19;17.70;99.90
1992;DHT22;997;48.448;8.924;2023-04-28T14:13:52;17.20;99.90
1992;DHT22;997;48.448;8.924;2023-04-28T14:16:18;16.90;99.90
1992;DHT22;997;48.448;8.924;2023-04-28T14:18:43;16.70;99.90
1992;DHT22;997;48.448;8.924;2023-04-28T14:21:09;16.70;99.90
1992;DHT22;997;48.448;8.924;2023-04-28T14:23:35;16.40;99.90
1992;DHT22;997;48.448;8.924;2023-04-28T14:26:01;16.60;99.90
1992;DHT22;997;48.448;8.924;2023-04-28T14:28:27;16.70;99.90
1992;DHT22;997;48.448;8.924;2023-04-28T14:30:53;16.70;99.90
1992;DHT22;997;48.448;8.924;2023-04-28T14:33:19;16.70;99.90
1992;DHT22;997;48.448;8.924;2023-04-28T14:35:44;16.70;99.90
1992;DHT22;997;48.448;8.924;2023-04-28T14:38:12;16.60;99.90
1992;DHT22;997;48.448;8.924;2023-04-28T14:40:38;16.50;99.90
1992;DHT22;997;48.448;8.924;2023-04-28T14:43:03;16.50;99.90
1992;DHT22;997;48.448;8.924;2023-04-28T14:45:31;16.50;99.90
1992;DHT22;997;48.448;8.924;2023-04-28T14:48:03;16.70;99.90
1992;DHT22;997;48.448;8.924;2023-04-28T14:50:31;16.90;99.90
1992;DHT22;997;48.448;8.924;2023-04-28T14:53:20;17.20;99.90
1992;DHT22;997;48.448;8.924;2023-04-28T14:55:48;17.50;99.90
1992;DHT22;997;48.448;8.924;2023-04-28T14:58:14;17.50;99.90
1992;DHT22;997;48.448;8.924;2023-04-28T15:00:40;17.50;99.90
1992;DHT22;997;48.448;8.924;2023-04-28T15:03:06;17.60;99.90
1992;DHT22;997;48.448;8.924;2023-04-28T15:05:31;17.50;99.90
1992;DHT22;997;48.448;8.924;2023-04-28T15:07:57;17.60;99.90
1992;DHT22;997;48.448;8.924;2023-04-28T15:10:23;17.60;99.90
1992;DHT22;997;48.448;8.924;2023-04-28T15:12:48;17.70;99.90
1992;DHT22;997;48.448;8.924;2023-04-28T15:15:14;17.70;99.90
1992;DHT22;997;48.448;8.924;2023-04-28T15:17:40;17.70;99.90
1992;DHT22;997;48.448;8.924;2023-04-28T15:20:06;17.70;99.90
1992;DHT22;997;48.448;8.924;2023-04-28T15:22:32;17.80;99.90
1992;DHT22;997;48.448;8.924;2023-04-28T15:24:59;17.80;99.90
1992;DHT22;997;48.448;8.924;2023-04-28T15:27:25;17.70;99.90
1992;DHT22;997;48.448;8.924;2023-04-28T15:29:50;17.70;99.90
1992;DHT22;997;48.448;8.924;2023-04-28T15:32:17;17.70;99.90
1992;DHT22;997;48.448;8.924;2023-04-28T15:34:43;17.60;99.90
1992;DHT22;997;48.448;8.924;2023-04-28T15:37:39;17.60;99.90
1992;DHT22;997;48.448;8.924;2023-04-28T15:40:07;17.60;99.90
1992;DHT22;997;48.448;8.924;2023-04-28T15:42:33;17.70;99.90
1992;DHT22;997;48.448;8.924;2023-04-28T15:44:59;17.80;99.90
1992;DHT22;997;48.448;8.924;2023-04-28T15:47:26;17.90;99.90
1992;DHT22;997;48.448;8.924;2023-04-28T15:49:54;17.90;99.90
1992;DHT22;997;48.448;8.924;2023-04-28T15:52:19;17.90;99.90
1992;DHT22;997;48.448;8.924;2023-04-28T15:54:47;18.00;99.90
1992;DHT22;997;48.448;8.924;2023-04-28T19:56:07;16.20;99.90
1992;DHT22;997;48.448;8.924;2023-04-28T19:58:34;16.20;99.90
1992;DHT22;997;48.448;8.924;2023-04-28T20:01:01;16.30;99.90
